Time;durP1;ratioP1;P1;durP2;ratioP2;P2;SDS_P1;SDS_P2;PMS_P1;PMS_P2;Temp;Humidity;BMP_temperature;BMP_pressure;BME280_temperature;BME280_humidity;BME280_pressure;Samples;Min_cycle;Max_cycle;Signal;HPM_P1;HPM_P2
2023/08/09 00:01:32;;;;;;;0.03;0.03;;;;;;;14.46;59.97;99878.84;4334064;33;20115;-94
2023/08/09 00:03:57;;;;;;;0.00;0.00;;;;;;;14.50;59.98;99868.16;4327773;32;20393;-96
2023/08/09 00:06:22;;;;;;;0.00;0.00;;;;;;;14.50;59.98;99877.78;4351690;32;20128;-95
2023/08/09 00:08:48;;;;;;;0.08;0.08;;;;;;;14.43;59.98;99874.56;4317388;33;20080;-95
2023/08/09 00:11:13;;;;;;;0.00;0.00;;;;;;;14.43;59.97;99875.44;4338712;33;20134;-96
2023/08/09 00:13:39;;;;;;;0.00;0.00;;;;;;;14.58;59.98;99870.41;4310905;33;20137;-95
2023/08/09 00:16:04;;;;;;;0.00;0.00;;;;;;;14.56;59.99;99869.63;4310081;33;20170;-95
2023/08/09 00:18:30;;;;;;;0.00;0.00;;;;;;;14.39;59.97;99880.84;4307811;33;20433;-96
2023/08/09 00:20:55;;;;;;;0.03;0.03;;;;;;;14.29;59.97;99883.03;4309966;32;20107;-96
2023/08/09 00:23:21;;;;;;;0.00;0.00;;;;;;;14.17;59.96;99880.09;4333965;33;20127;-96
2023/08/09 00:25:46;;;;;;;0.00;0.00;;;;;;;14.14;59.96;99884.56;4323583;32;20118;-96
2023/08/09 00:28:12;;;;;;;0.00;0.00;;;;;;;14.06;59.96;99888.44;4319262;32;20401;-96
2023/08/09 00:30:37;;;;;;;0.00;0.00;;;;;;;14.12;59.96;99881.16;4341085;32;20126;-96
2023/08/09 00:33:03;;;;;;;0.00;0.00;;;;;;;14.18;59.96;99879.19;4339988;33;20175;-96
2023/08/09 00:35:30;;;;;;;0.00;0.00;;;;;;;14.09;59.95;99883.06;4337125;32;20184;-95
2023/08/09 00:37:55;;;;;;;0.00;0.00;;;;;;;14.04;59.95;99883.28;4335096;33;20063;-96
2023/08/09 00:40:21;;;;;;;0.00;0.00;;;;;;;14.08;59.96;99879.59;4325351;33;20133;-96
2023/08/09 00:42:46;;;;;;;0.00;0.00;;;;;;;14.22;59.97;99865.91;4307226;33;20127;-95
2023/08/09 00:45:12;;;;;;;0.00;0.00;;;;;;;13.98;59.95;99870.47;4318177;32;20398;-95
2023/08/09 00:47:37;;;;;;;1.15;0.80;;;;;;;13.87;59.94;99864.84;4317891;32;20121;-95
2023/08/09 00:50:03;;;;;;;0.00;0.00;;;;;;;13.91;59.95;99876.03;4327008;32;20491;-93
2023/08/09 00:52:29;;;;;;;0.03;0.03;;;;;;;13.98;59.95;99872.25;4338899;32;20385;-95
2023/08/09 00:54:54;;;;;;;0.00;0.00;;;;;;;13.92;59.94;99878.56;4328973;32;20107;-95
2023/08/09 00:57:20;;;;;;;0.00;0.00;;;;;;;13.94;59.95;99875.88;4340055;32;20427;-94
2023/08/09 00:59:45;;;;;;;0.03;0.03;;;;;;;14.11;59.96;99876.00;4316834;33;20126;-94
2023/08/09 01:02:11;;;;;;;0.00;0.00;;;;;;;14.21;59.96;99882.53;4309301;33;20111;-94
2023/08/09 01:04:36;;;;;;;0.00;0.00;;;;;;;13.95;59.94;99878.44;4308663;33;20103;-95
2023/08/09 01:07:31;;;;;;;0.00;0.00;;;;;;;13.84;59.94;99880.69;4318838;32;20134;-95
2023/08/09 01:10:17;;;;;;;0.00;0.00;;;;;;;13.83;59.95;99881.59;4330982;33;20253;-93
2023/08/09 01:12:48;;;;;;;0.20;0.20;;;;;;;13.80;59.94;99884.34;4311825;33;20103;-95
2023/08/09 01:15:15;;;;;;;0.20;0.20;;;;;;;13.85;59.94;99877.16;4310084;33;20133;-95
2023/08/09 01:17:40;;;;;;;0.00;0.00;;;;;;;13.90;59.95;99871.69;4332137;33;20836;-95
2023/08/09 01:20:10;;;;;;;0.20;0.20;;;;;;;13.91;59.95;99870.78;4324136;33;20099;-95
2023/08/09 01:22:36;;;;;;;;;;;;;;;13.90;59.95;99871.69;4313320;33;20096;-94
2023/08/09 01:25:06;;;;;;;0.00;0.00;;;;;;;13.99;59.95;99866.09;4338223;33;20034;-94
2023/08/09 01:27:32;;;;;;;0.00;0.00;;;;;;;13.77;59.94;99874.88;4315256;32;20161;-96
2023/08/09 01:29:57;;;;;;;0.00;0.00;;;;;;;13.79;59.95;99877.41;4348022;33;20114;-94
2023/08/09 01:32:24;;;;;;;0.20;0.20;;;;;;;13.68;59.93;99877.00;4314037;32;20134;-95
2023/08/09 01:34:49;;;;;;;0.10;0.10;;;;;;;13.63;59.93;99866.75;4341528;32;20098;-95
2023/08/09 01:37:19;;;;;;;0.00;0.00;;;;;;;13.67;59.93;99873.53;4342463;33;20103;-95
2023/08/09 01:39:45;;;;;;;0.00;0.00;;;;;;;13.73;59.94;99873.31;4327107;33;20079;-94
2023/08/09 01:42:11;;;;;;;0.10;0.10;;;;;;;13.71;59.93;99874.25;4328282;33;20218;-93
2023/08/09 01:44:37;;;;;;;0.00;0.00;;;;;;;13.64;59.94;99868.44;4333532;32;20548;-95
2023/08/09 01:47:03;;;;;;;0.00;0.00;;;;;;;13.63;59.93;99865.91;4352355;32;20076;-94
2023/08/09 01:49:28;;;;;;;0.40;0.40;;;;;;;13.68;59.93;99869.16;4325566;32;20697;-95
2023/08/09 01:51:54;;;;;;;0.52;0.25;;;;;;;13.70;59.93;99864.72;4352082;32;20423;-95
2023/08/09 01:54:38;;;;;;;0.00;0.00;;;;;;;13.59;59.93;99866.94;4348520;32;20075;-96
2023/08/09 01:57:11;;;;;;;0.00;0.00;;;;;;;13.83;59.94;99858.91;4360443;33;20063;-95
2023/08/09 01:59:39;;;;;;;0.00;0.00;;;;;;;13.66;59.93;99868.38;4348952;33;20055;-96
2023/08/09 02:02:11;;;;;;;0.10;0.10;;;;;;;13.67;59.94;99870.94;4361006;33;20151;-96
2023/08/09 02:04:38;;;;;;;0.00;0.00;;;;;;;13.56;59.92;99867.94;4357430;32;20115;-96
2023/08/09 02:07:50;;;;;;;0.00;0.00;;;;;;;13.56;59.92;99861.84;4349995;32;20074;-96
2023/08/09 02:10:22;;;;;;;0.00;0.00;;;;;;;13.90;59.95;99858.63;4567752;27;20793;-95
2023/08/09 02:12:50;;;;;;;0.17;0.13;;;;;;;13.54;59.92;99867.16;4334202;33;20090;-96
2023/08/09 02:15:19;;;;;;;0.00;0.00;;;;;;;13.34;59.92;99877.59;4344740;33;20098;-95
2023/08/09 02:17:45;;;;;;;0.00;0.00;;;;;;;13.31;59.91;99877.72;4337229;33;20149;-94
2023/08/09 02:20:11;;;;;;;0.35;0.35;;;;;;;13.25;59.91;99876.22;4317771;33;20152;-94
2023/08/09 02:22:37;;;;;;;0.10;0.10;;;;;;;13.26;59.91;99887.53;4294949;33;20163;-95
2023/08/09 02:25:03;;;;;;;0.05;0.05;;;;;;;13.41;59.91;99881.63;4299444;33;20134;-94
2023/08/09 02:27:28;;;;;;;0.00;0.00;;;;;;;13.31;59.91;99880.34;4299400;33;20111;-94
2023/08/09 02:29:55;;;;;;;0.00;0.00;;;;;;;13.42;59.92;99883.34;4299070;33;20151;-93
2023/08/09 02:32:20;;;;;;;0.00;0.00;;;;;;;13.38;59.92;99892.22;4301451;33;20115;-93
2023/08/09 02:34:46;;;;;;;0.00;0.00;;;;;;;13.29;59.91;99892.63;4299420;33;20107;-92
2023/08/09 02:37:13;;;;;;;0.00;0.00;;;;;;;13.29;59.91;99888.25;4300248;33;20125;-95
2023/08/09 02:39:38;;;;;;;0.00;0.00;;;;;;;13.36;59.92;99897.53;4298840;33;20064;-94
2023/08/09 02:42:04;;;;;;;0.00;0.00;;;;;;;13.29;59.91;99887.37;4296895;33;20133;-93
2023/08/09 02:44:32;;;;;;;0.00;0.00;;;;;;;13.24;59.91;99899.78;4296986;33;20138;-93
2023/08/09 02:46:58;;;;;;;0.00;0.00;;;;;;;13.26;59.90;99895.34;4321166;33;20100;-94
2023/08/09 02:49:23;;;;;;;0.40;0.40;;;;;;;13.31;59.91;99899.47;4310510;33;20602;-93
2023/08/09 02:51:49;;;;;;;0.00;0.00;;;;;;;13.18;59.92;99901.72;4298674;33;20112;-95
2023/08/09 02:54:15;;;;;;;0.00;0.00;;;;;;;13.17;59.91;99900.03;4310489;33;20107;-94
2023/08/09 02:56:40;;;;;;;0.40;0.35;;;;;;;13.16;59.90;99906.12;4296600;33;20134;-94
2023/08/09 02:59:05;;;;;;;0.25;0.05;;;;;;;13.24;59.90;99898.00;4308558;33;20147;-93
2023/08/09 03:01:31;;;;;;;0.00;0.00;;;;;;;13.18;59.90;99909.56;4296672;33;20191;-94
2023/08/09 03:03:56;;;;;;;0.00;0.00;;;;;;;13.23;59.91;99898.91;4321174;33;20172;-94
2023/08/09 03:06:22;;;;;;;0.00;0.00;;;;;;;13.13;59.91;99902.78;4296857;33;20100;-94
2023/08/09 03:08:51;;;;;;;0.10;0.10;;;;;;;13.12;59.91;99907.16;4309030;33;20119;-94
2023/08/09 03:11:22;;;;;;;0.00;0.00;;;;;;;13.16;59.90;99907.91;4309185;33;20461;-94
2023/08/09 03:13:47;;;;;;;0.37;0.37;;;;;;;13.06;59.90;99911.81;4298988;33;20128;-94
2023/08/09 03:16:12;;;;;;;0.00;0.00;;;;;;;13.10;59.89;99916.84;4300217;33;20084;-95
2023/08/09 03:18:39;;;;;;;0.00;0.00;;;;;;;13.13;59.91;99921.09;4298442;33;20151;-95
2023/08/09 03:23:33;;;;;;;0.00;0.00;;;;;;;13.16;59.90;99915.75;4317110;33;20132;-92
2023/08/09 03:25:58;;;;;;;0.08;0.08;;;;;;;13.18;59.90;99913.94;4295769;33;20092;-95
2023/08/09 03:28:24;;;;;;;0.00;0.00;;;;;;;13.10;59.90;99906.38;4282441;33;20138;-94
2023/08/09 03:30:49;;;;;;;0.00;0.00;;;;;;;12.98;59.89;99909.47;4282163;33;20104;-92
2023/08/09 03:33:15;;;;;;;0.00;0.00;;;;;;;13.10;59.90;99909.00;4282157;33;20139;-93
2023/08/09 03:35:40;;;;;;;0.35;0.25;;;;;;;13.07;59.90;99909.13;4282259;33;20122;-94
2023/08/09 03:38:06;;;;;;;0.00;0.00;;;;;;;12.98;59.90;99908.63;4296241;33;20387;-94
2023/08/09 03:40:31;;;;;;;0.00;0.00;;;;;;;13.11;59.90;99910.69;4299793;33;20152;-94
2023/08/09 03:42:56;;;;;;;0.00;0.00;;;;;;;13.22;59.90;99910.28;4296725;33;20415;-94
2023/08/09 03:45:22;;;;;;;3.00;1.25;;;;;;;13.37;59.92;99912.28;4296226;33;20536;-92
2023/08/09 03:47:48;;;;;;;0.00;0.00;;;;;;;13.28;59.91;99909.22;4295885;33;20410;-92
2023/08/09 03:50:14;;;;;;;0.00;0.00;;;;;;;13.31;59.91;99914.31;4296394;33;20096;-94
2023/08/09 03:52:40;;;;;;;1.75;0.95;;;;;;;13.34;59.92;99907.19;4296020;33;20107;-94
2023/08/09 03:55:06;;;;;;;0.00;0.00;;;;;;;13.39;59.92;99907.00;4296087;33;20138;-95
2023/08/09 03:57:32;;;;;;;0.15;0.15;;;;;;;13.54;59.92;99908.16;4298617;33;20102;-94
2023/08/09 03:59:57;;;;;;;0.00;0.00;;;;;;;13.52;59.93;99906.44;4296791;33;20112;-94
2023/08/09 04:02:22;;;;;;;0.10;0.08;;;;;;;13.64;59.94;99907.69;4285142;33;20158;-96
2023/08/09 04:04:48;;;;;;;0.00;0.00;;;;;;;13.68;59.93;99906.62;4296531;33;20421;-95
2023/08/09 04:07:13;;;;;;;0.00;0.00;;;;;;;13.96;59.95;99908.06;4296476;33;20192;-94
2023/08/09 04:09:39;;;;;;;0.00;0.00;;;;;;;14.08;59.95;99912.78;4296213;33;20143;-93
2023/08/09 04:12:05;;;;;;;0.00;0.00;;;;;;;14.26;59.96;99921.59;4296410;33;20494;-94
2023/08/09 04:14:30;;;;;;;0.32;0.32;;;;;;;14.37;59.97;99917.56;4296475;33;20143;-95
2023/08/09 04:16:59;;;;;;;2.37;0.60;;;;;;;14.37;59.97;99921.97;4296196;33;20112;-95
2023/08/09 04:19:26;;;;;;;2.55;1.02;;;;;;;14.45;59.97;99919.06;4284738;33;20171;-94
2023/08/09 04:21:52;;;;;;;0.00;0.00;;;;;;;14.58;59.98;99914.94;4284807;33;20505;-93
2023/08/09 04:24:17;;;;;;;3.40;1.27;;;;;;;14.63;59.97;99915.56;4296530;33;20117;-93
2023/08/09 04:26:43;;;;;;;1.25;1.15;;;;;;;14.69;59.98;99912.69;4297621;33;20083;-95
2023/08/09 04:29:08;;;;;;;0.30;0.30;;;;;;;14.73;59.99;99916.87;4300834;33;20135;-96
2023/08/09 04:31:34;;;;;;;0.10;0.10;;;;;;;14.66;59.99;99907.56;4301007;33;20366;-96
2023/08/09 04:34:00;;;;;;;0.00;0.00;;;;;;;14.69;59.98;99902.22;4300354;33;20088;-96
2023/08/09 04:36:27;;;;;;;0.00;0.00;;;;;;;14.98;60.00;99893.81;4302564;33;20061;-96
2023/08/09 04:38:52;;;;;;;0.00;0.00;;;;;;;14.93;60.00;99887.97;4304293;33;20713;-96
2023/08/09 04:41:18;;;;;;;0.00;0.00;;;;;;;15.11;60.01;99896.69;4297876;33;20122;-96
2023/08/09 04:43:43;;;;;;;0.00;0.00;;;;;;;15.18;60.02;99902.50;4295802;33;20103;-96
2023/08/09 04:46:12;;;;;;;0.00;0.00;;;;;;;15.27;60.01;99899.44;4284938;33;20109;-96
2023/08/09 04:48:38;;;;;;;0.17;0.17;;;;;;;15.40;60.03;99899.69;4285333;33;20764;-96
2023/08/09 04:51:04;;;;;;;0.00;0.00;;;;;;;15.43;60.03;99895.13;4296461;33;20099;-94
2023/08/09 04:53:30;;;;;;;0.20;0.20;;;;;;;15.55;60.04;99898.91;4295652;33;20441;-94
2023/08/09 04:55:55;;;;;;;0.00;0.00;;;;;;;15.64;60.04;99901.97;4295790;33;20131;-94
2023/08/09 04:58:21;;;;;;;0.00;0.00;;;;;;;15.73;60.04;99902.41;4296888;33;20355;-94
2023/08/09 05:00:46;;;;;;;0.00;0.00;;;;;;;15.88;60.05;99904.28;4305966;33;20088;-94
2023/08/09 05:03:11;;;;;;;0.17;0.17;;;;;;;16.14;60.06;99897.69;4302634;33;20096;-94
2023/08/09 05:05:37;;;;;;;0.00;0.00;;;;;;;16.33;60.08;99895.78;4299574;33;20107;-94
2023/08/09 05:08:03;;;;;;;0.00;0.00;;;;;;;16.48;60.08;99896.72;4297550;33;20112;-95
2023/08/09 05:10:28;;;;;;;0.00;0.00;;;;;;;16.72;60.10;99895.41;4297223;33;20123;-95
2023/08/09 05:12:54;;;;;;;1.77;0.75;;;;;;;16.80;60.10;99903.75;4297429;33;20131;-94
2023/08/09 05:15:19;;;;;;;0.43;0.43;;;;;;;17.10;60.12;99905.59;4297365;33;20084;-93
2023/08/09 05:17:45;;;;;;;0.00;0.00;;;;;;;17.11;60.11;99904.66;4297456;33;20374;-95
2023/08/09 05:20:11;;;;;;;0.00;0.00;;;;;;;17.24;60.12;99905.66;4297233;33;20126;-94
2023/08/09 05:22:36;;;;;;;0.00;0.00;;;;;;;17.31;60.12;99906.16;4297236;33;20092;-93
2023/08/09 05:25:02;;;;;;;0.00;0.00;;;;;;;17.27;60.12;99912.50;4297430;33;20132;-93
2023/08/09 05:27:28;;;;;;;0.13;0.13;;;;;;;17.52;60.13;99910.19;4297339;33;20120;-95
2023/08/09 05:29:53;;;;;;;0.00;0.00;;;;;;;17.58;60.14;99909.84;4298767;33;20105;-94
2023/08/09 05:32:22;;;;;;;0.00;0.00;;;;;;;17.78;60.14;99900.81;4297646;33;20212;-94
2023/08/09 05:34:48;;;;;;;0.27;0.27;;;;;;;17.79;60.15;99902.50;4285433;33;20099;-96
2023/08/09 05:37:13;;;;;;;5.50;1.37;;;;;;;17.99;60.16;99896.03;4296977;33;20130;-94
2023/08/09 05:39:39;;;;;;;4.90;1.65;;;;;;;18.04;60.16;99897.44;4298262;33;20129;-96
2023/08/09 05:42:04;;;;;;;1.10;0.82;;;;;;;18.15;60.16;99890.69;4297530;33;20120;-96
2023/08/09 05:44:30;;;;;;;0.13;0.10;;;;;;;18.34;60.18;99897.38;4297794;33;20099;-96
2023/08/09 05:46:55;;;;;;;2.55;1.00;;;;;;;18.56;60.19;99893.41;4297605;33;20120;-96
2023/08/09 05:49:21;;;;;;;0.15;0.15;;;;;;;18.55;60.19;99891.72;4297012;33;20176;-94
2023/08/09 05:51:46;;;;;;;0.00;0.00;;;;;;;18.59;60.19;99895.84;4296915;33;20127;-95
2023/08/09 05:54:12;;;;;;;1.85;0.70;;;;;;;18.57;60.19;99898.56;4297089;33;20111;-94
2023/08/09 05:56:38;;;;;;;0.03;0.03;;;;;;;18.61;60.19;99902.72;4297384;33;20134;-94
2023/08/09 05:59:04;;;;;;;1.02;0.22;;;;;;;18.92;60.20;99903.44;4297062;33;20111;-94
2023/08/09 06:01:29;;;;;;;0.00;0.00;;;;;;;19.07;60.21;99905.09;4285075;33;20104;-94
2023/08/09 06:03:55;;;;;;;0.08;0.08;;;;;;;19.20;60.22;99898.09;4284980;33;20458;-95
2023/08/09 06:06:21;;;;;;;0.00;0.00;;;;;;;19.22;60.22;99898.84;4296858;33;20205;-95
2023/08/09 06:08:46;;;;;;;0.10;0.10;;;;;;;19.28;60.23;99890.50;4297411;33;20471;-95
2023/08/09 06:11:12;;;;;;;0.05;0.05;;;;;;;19.48;60.24;99888.34;4297192;33;20170;-95
2023/08/09 06:13:37;;;;;;;0.00;0.00;;;;;;;19.77;60.25;99886.41;4297228;33;20118;-94
2023/08/09 06:16:03;;;;;;;0.32;0.30;;;;;;;19.89;60.26;99882.97;4296718;33;20156;-95
2023/08/09 06:18:28;;;;;;;0.00;0.00;;;;;;;20.12;60.28;99881.38;4297381;33;20104;-95
2023/08/09 06:20:56;;;;;;;0.00;0.00;;;;;;;20.13;60.27;99877.78;4296938;33;20114;-94
2023/08/09 06:23:22;;;;;;;0.00;0.00;;;;;;;20.15;60.27;99879.37;4297188;33;20088;-95
2023/08/09 06:25:49;;;;;;;0.10;0.10;;;;;;;20.23;60.29;99870.87;4297205;33;20111;-95
2023/08/09 06:28:16;;;;;;;0.25;0.25;;;;;;;20.33;60.28;99879.00;4297424;33;20769;-94
2023/08/09 06:30:41;;;;;;;0.17;0.15;;;;;;;20.14;60.27;99880.31;4297220;33;20877;-95
2023/08/09 06:33:07;;;;;;;0.00;0.00;;;;;;;20.22;60.28;99877.97;4296774;33;20631;-95
2023/08/09 06:35:33;;;;;;;0.65;0.35;;;;;;;20.56;60.30;99874.78;4299633;33;20076;-93
2023/08/09 06:37:58;;;;;;;0.00;0.00;;;;;;;20.64;60.30;99869.81;4304708;33;20104;-94
2023/08/09 06:40:24;;;;;;;0.22;0.22;;;;;;;20.82;60.30;99871.97;4297903;33;20425;-93
2023/08/09 06:42:49;;;;;;;0.00;0.00;;;;;;;20.86;60.32;99880.53;4297110;33;20091;-94
2023/08/09 06:45:15;;;;;;;0.88;0.35;;;;;;;21.06;60.32;99879.09;4296556;33;20108;-94
2023/08/09 06:47:41;;;;;;;0.00;0.00;;;;;;;21.33;60.34;99881.53;4297927;33;20130;-95
2023/08/09 06:50:07;;;;;;;0.17;0.17;;;;;;;21.55;60.34;99886.91;4297108;33;20088;-96
2023/08/09 06:52:33;;;;;;;0.00;0.00;;;;;;;21.68;60.35;99887.66;4297129;33;20123;-95
2023/08/09 06:55:00;;;;;;;0.00;0.00;;;;;;;21.89;60.37;99874.56;4285134;33;20749;-95
2023/08/09 06:57:25;;;;;;;0.25;0.17;;;;;;;22.16;60.37;99882.22;4284967;33;20115;-95
2023/08/09 06:59:53;;;;;;;0.80;0.25;;;;;;;22.53;60.40;99872.22;4296870;33;20097;-96
2023/08/09 07:02:19;;;;;;;0.00;0.00;;;;;;;22.79;60.41;99874.59;4297207;33;20077;-94
2023/08/09 07:04:44;;;;;;;0.95;0.30;;;;;;;22.89;60.42;99868.44;4297069;33;20752;-95
2023/08/09 07:07:10;;;;;;;0.00;0.00;;;;;;;23.20;60.43;99869.47;4284718;33;20197;-94
2023/08/09 07:09:35;;;;;;;0.00;0.00;;;;;;;23.35;60.43;99867.31;4296168;33;20089;-93
2023/08/09 07:12:00;;;;;;;0.00;0.00;;;;;;;23.43;60.45;99864.91;4296666;33;20151;-96
2023/08/09 07:14:26;;;;;;;0.00;0.00;;;;;;;23.71;60.45;99866.09;4296439;33;20159;-96
2023/08/09 07:16:51;;;;;;;0.10;0.10;;;;;;;23.64;60.46;99874.69;4296807;33;20123;-95
2023/08/09 07:19:17;;;;;;;0.00;0.00;;;;;;;23.84;60.47;99871.22;4296515;33;20204;-95
2023/08/09 07:21:42;;;;;;;0.00;0.00;;;;;;;24.02;60.48;99860.81;4296508;33;20102;-94
2023/08/09 07:24:08;;;;;;;0.20;0.20;;;;;;;24.14;60.49;99865.09;4296103;33;20130;-94
2023/08/09 07:26:33;;;;;;;0.00;0.00;;;;;;;24.35;60.49;99862.41;4296606;33;20159;-95
2023/08/09 07:28:59;;;;;;;0.20;0.20;;;;;;;24.38;60.50;99856.84;4296575;33;20127;-95
2023/08/09 07:31:24;;;;;;;0.57;0.57;;;;;;;24.55;60.50;99855.31;4296269;33;20114;-96
2023/08/09 07:33:50;;;;;;;0.00;0.00;;;;;;;24.68;60.50;99855.94;4295936;33;20134;-96
2023/08/09 07:36:15;;;;;;;0.85;0.10;;;;;;;24.80;60.51;99854.81;4284470;33;20155;-96
2023/08/09 07:38:41;;;;;;;3.00;0.80;;;;;;;24.66;60.51;99857.91;4296341;33;20108;-95
2023/08/09 07:41:07;;;;;;;0.75;0.32;;;;;;;24.90;60.52;99865.50;4296350;33;20108;-95
2023/08/09 07:43:32;;;;;;;0.00;0.00;;;;;;;24.93;60.53;99863.41;4296255;33;20112;-95
2023/08/09 07:45:58;;;;;;;0.37;0.08;;;;;;;24.99;60.53;99864.69;4296257;33;20479;-95
2023/08/09 07:48:24;;;;;;;0.00;0.00;;;;;;;25.32;60.55;99855.50;4296629;33;20136;-96
2023/08/09 07:50:49;;;;;;;0.52;0.52;;;;;;;25.54;60.55;99852.50;4296227;33;20128;-96
2023/08/09 07:53:15;;;;;;;0.30;0.30;;;;;;;25.76;60.56;99850.53;4284233;33;20156;-96
2023/08/09 07:55:40;;;;;;;0.47;0.47;;;;;;;25.82;60.57;99850.81;4296207;33;20092;-95
2023/08/09 07:58:06;;;;;;;0.20;0.20;;;;;;;26.07;60.58;99854.69;4296168;33;20136;-96
2023/08/09 08:00:32;;;;;;;0.20;0.20;;;;;;;26.12;60.59;99846.22;4296452;33;20132;-96
2023/08/09 08:02:57;;;;;;;0.10;0.10;;;;;;;26.27;60.60;99855.47;4296067;33;20207;-96
2023/08/09 08:05:22;;;;;;;0.43;0.20;;;;;;;26.38;60.60;99852.62;4296254;33;20138;-95
2023/08/09 08:07:48;;;;;;;0.30;0.20;;;;;;;26.51;60.61;99849.63;4296084;33;20118;-95
2023/08/09 08:10:16;;;;;;;2.65;0.55;;;;;;;26.71;60.61;99853.00;4296060;33;20116;-95
2023/08/09 08:12:42;;;;;;;0.20;0.20;;;;;;;26.72;60.61;99852.00;4297149;33;20759;-95
2023/08/09 08:15:08;;;;;;;0.15;0.13;;;;;;;26.68;60.62;99853.31;4297191;33;20130;-94
2023/08/09 08:17:34;;;;;;;0.40;0.40;;;;;;;26.71;60.62;99853.00;4284269;33;20361;-96
2023/08/09 08:19:59;;;;;;;0.10;0.10;;;;;;;26.79;60.62;99847.75;4295980;33;20381;-95
2023/08/09 08:22:25;;;;;;;0.10;0.10;;;;;;;26.84;60.62;99857.00;4295618;33;20208;-93
2023/08/09 08:24:51;;;;;;;0.00;0.00;;;;;;;26.89;60.64;99853.88;4295745;33;20183;-96
2023/08/09 08:27:16;;;;;;;0.00;0.00;;;;;;;26.84;60.63;99853.50;4307981;33;20092;-96
2023/08/09 08:29:41;;;;;;;0.00;0.00;;;;;;;26.86;60.62;99856.84;4295961;33;20088;-94
2023/08/09 08:32:07;;;;;;;0.00;0.00;;;;;;;26.89;60.64;99861.88;4295421;33;20167;-95
2023/08/09 08:34:32;;;;;;;0.00;0.00;;;;;;;27.06;60.64;99855.75;4295763;33;20103;-93
2023/08/09 08:36:58;;;;;;;0.00;0.00;;;;;;;27.09;60.64;99854.59;4296064;33;20143;-93
2023/08/09 08:39:24;;;;;;;0.00;0.00;;;;;;;27.28;60.65;99851.78;4296796;33;20118;-94
2023/08/09 08:41:51;;;;;;;0.00;0.00;;;;;;;27.22;60.65;99849.75;4297405;33;20116;-94
2023/08/09 08:44:17;;;;;;;1.55;1.00;;;;;;;27.33;60.66;99856.66;4297846;33;20103;-95
2023/08/09 08:46:42;;;;;;;0.57;0.57;;;;;;;27.34;60.65;99855.66;4297250;33;20183;-94
2023/08/09 08:49:17;;;;;;;0.03;0.03;;;;;;;27.28;60.66;99846.44;4297326;33;20498;-95
2023/08/09 08:51:42;;;;;;;0.22;0.22;;;;;;;27.35;60.66;99858.19;4286138;33;20127;-93
2023/08/09 08:54:08;;;;;;;0.13;0.13;;;;;;;27.41;60.66;99848.72;4285323;33;20100;-95
2023/08/09 08:56:33;;;;;;;0.10;0.10;;;;;;;27.48;60.66;99852.47;4297540;33;20088;-96
2023/08/09 08:58:59;;;;;;;0.00;0.00;;;;;;;27.44;60.66;99851.91;4297357;33;20323;-95
2023/08/09 09:01:25;;;;;;;0.00;0.00;;;;;;;27.57;60.66;99851.53;4297092;33;20163;-93
2023/08/09 09:03:50;;;;;;;0.30;0.00;;;;;;;27.62;60.67;99843.91;4285193;33;20111;-95
2023/08/09 09:06:15;;;;;;;0.00;0.00;;;;;;;27.64;60.67;99843.75;4297200;33;20088;-95
2023/08/09 09:08:42;;;;;;;0.00;0.00;;;;;;;27.54;60.67;99846.50;4297072;33;20151;-92
2023/08/09 09:11:15;;;;;;;0.00;0.00;;;;;;;27.59;60.67;99844.19;4285172;33;20212;-94
2023/08/09 09:13:40;;;;;;;0.10;0.10;;;;;;;27.50;60.67;99853.97;4285439;33;20131;-93
2023/08/09 09:16:06;;;;;;;0.30;0.30;;;;;;;27.58;60.66;99844.34;4296987;33;20120;-94
2023/08/09 09:18:31;;;;;;;0.10;0.10;;;;;;;27.73;60.68;99843.66;4297498;33;20144;-95
2023/08/09 09:20:57;;;;;;;0.00;0.00;;;;;;;27.75;60.68;99839.00;4296940;33;20144;-94
2023/08/09 09:23:29;;;;;;;0.00;0.00;;;;;;;27.81;60.69;99843.69;4297343;33;20150;-94
2023/08/09 09:26:11;;;;;;;0.00;0.00;;;;;;;27.80;60.68;99838.50;4285893;33;20113;-95
2023/08/09 09:28:38;;;;;;;0.05;0.05;;;;;;;27.89;60.68;99842.91;4286458;33;20118;-95
2023/08/09 09:31:04;;;;;;;3.42;0.17;;;;;;;27.89;60.68;99844.75;4285636;33;20096;-95
2023/08/09 09:33:35;;;;;;;0.10;0.10;;;;;;;27.97;60.70;99842.97;4297506;33;20167;-95
2023/08/09 09:36:02;;;;;;;0.10;0.10;;;;;;;27.99;60.69;99835.63;4297451;33;20215;-94
2023/08/09 09:38:28;;;;;;;0.03;0.03;;;;;;;28.05;60.69;99839.50;4297014;33;20189;-95
2023/08/09 09:40:53;;;;;;;1.00;0.60;;;;;;;28.22;60.71;99833.25;4309234;33;20123;-95
2023/08/09 09:43:19;;;;;;;0.10;0.10;;;;;;;28.23;60.71;99836.75;4297423;33;20179;-93
2023/08/09 09:45:45;;;;;;;0.00;0.00;;;;;;;28.42;60.71;99831.19;4297486;33;20091;-95
2023/08/09 09:48:16;;;;;;;0.00;0.00;;;;;;;28.57;60.73;99828.72;4299145;33;20096;-95
2023/08/09 09:50:43;;;;;;;0.52;0.52;;;;;;;28.63;60.73;99834.28;4300659;33;20120;-94
2023/08/09 09:53:10;;;;;;;0.43;0.43;;;;;;;28.63;60.72;99834.28;4285699;33;20104;-94
2023/08/09 09:55:35;;;;;;;0.00;0.00;;;;;;;28.62;60.73;99829.06;4285566;33;20091;-94
2023/08/09 09:58:01;;;;;;;0.05;0.05;;;;;;;28.56;60.72;99830.56;4296881;33;20114;-94
2023/08/09 10:00:31;;;;;;;0.00;0.00;;;;;;;28.51;60.72;99824.84;4297275;33;20116;-95
2023/08/09 10:03:00;;;;;;;0.00;0.00;;;;;;;28.48;60.72;99822.50;4297682;33;20112;-96
2023/08/09 10:05:39;;;;;;;0.00;0.00;;;;;;;28.66;60.73;99828.59;4285540;33;20481;-93
2023/08/09 10:08:07;;;;;;;2.72;0.52;;;;;;;28.68;60.72;99820.38;4297342;33;20115;-94
2023/08/09 10:10:32;;;;;;;0.00;0.00;;;;;;;28.83;60.73;99818.72;4297171;33;20382;-95
2023/08/09 10:12:58;;;;;;;0.10;0.10;;;;;;;28.95;60.74;99820.13;4284764;33;20150;-94
2023/08/09 10:15:30;;;;;;;0.00;0.00;;;;;;;28.98;60.74;99814.44;4296764;33;20092;-94
2023/08/09 10:18:10;;;;;;;0.00;0.00;;;;;;;28.87;60.74;99817.44;4285517;33;20088;-96
2023/08/09 10:20:38;;;;;;;0.00;0.00;;;;;;;28.82;60.73;99813.53;4285751;33;20128;-95
2023/08/09 10:23:03;;;;;;;0.00;0.00;;;;;;;28.71;60.73;99814.69;4284712;33;20095;-96
2023/08/09 10:25:43;;;;;;;0.10;0.10;;;;;;;28.76;60.72;99817.72;4284857;33;20076;-95
2023/08/09 10:28:08;;;;;;;0.00;0.00;;;;;;;28.79;60.73;99816.53;4285275;33;20104;-95
2023/08/09 10:30:43;;;;;;;0.00;0.00;;;;;;;28.77;60.73;99813.19;4285020;33;20787;-95
2023/08/09 10:33:09;;;;;;;0.20;0.20;;;;;;;28.76;60.73;99816.88;4285099;33;20080;-95
2023/08/09 10:35:51;;;;;;;0.00;0.00;;;;;;;28.72;60.73;99813.69;4297109;33;20099;-95
2023/08/09 10:38:18;;;;;;;0.00;0.00;;;;;;;28.76;60.73;99815.03;4285509;33;20106;-95
2023/08/09 10:40:49;;;;;;;0.00;0.00;;;;;;;28.68;60.74;99810.50;4285221;33;20130;-96
2023/08/09 10:43:22;;;;;;;0.05;0.05;;;;;;;28.87;60.75;99806.72;4285588;33;20790;-95
2023/08/09 10:45:51;;;;;;;0.10;0.10;;;;;;;28.83;60.73;99816.03;4297398;33;20186;-95
2023/08/09 10:48:23;;;;;;;0.00;0.00;;;;;;;28.90;60.74;99810.91;4297155;33;20132;-95
2023/08/09 10:51:02;;;;;;;0.10;0.10;;;;;;;28.95;60.74;99806.75;4296857;33;20088;-95
2023/08/09 10:53:28;;;;;;;0.00;0.00;;;;;;;28.85;60.74;99811.37;4285166;33;20116;-95
2023/08/09 10:55:57;;;;;;;0.00;0.00;;;;;;;28.89;60.74;99812.75;4296813;33;20118;-95
2023/08/09 10:58:31;;;;;;;1.03;0.47;;;;;;;28.84;60.75;99817.72;4284528;33;20114;-95
2023/08/09 11:00:56;;;;;;;0.00;0.00;;;;;;;29.08;60.75;99808.06;4285660;33;20194;-94
2023/08/09 11:03:22;;;;;;;0.00;0.00;;;;;;;29.08;60.75;99811.59;4297016;33;20107;-94
2023/08/09 11:05:47;;;;;;;0.00;0.00;;;;;;;29.06;60.75;99810.91;4297056;33;20143;-93
2023/08/09 11:08:17;;;;;;;0.00;0.00;;;;;;;29.10;60.76;99803.37;4297098;33;20120;-93
2023/08/09 11:10:43;;;;;;;0.00;0.00;;;;;;;29.11;60.76;99802.41;4296939;33;20103;-94
2023/08/09 11:13:12;;;;;;;0.00;0.00;;;;;;;29.10;60.75;99801.53;4296864;33;20170;-94
2023/08/09 11:15:37;;;;;;;0.25;0.25;;;;;;;29.17;60.76;99804.41;4296899;33;20166;-94
2023/08/09 11:18:03;;;;;;;0.00;0.00;;;;;;;29.20;60.76;99798.72;4296631;33;20092;-95
2023/08/09 11:20:29;;;;;;;0.15;0.15;;;;;;;29.12;60.75;99802.25;4296599;33;20143;-94
2023/08/09 11:22:56;;;;;;;0.45;0.45;;;;;;;28.93;60.75;99802.56;4296947;33;20099;-93
2023/08/09 11:25:22;;;;;;;0.00;0.00;;;;;;;29.09;60.76;99807.91;4297237;33;20837;-94
2023/08/09 11:27:54;;;;;;;0.10;0.10;;;;;;;29.08;60.75;99800.88;4284769;33;20096;-94
2023/08/09 11:30:20;;;;;;;0.10;0.05;;;;;;;29.07;60.75;99809.91;4308510;33;20108;-95
2023/08/09 11:33:05;;;;;;;0.00;0.00;;;;;;;29.09;60.75;99804.38;4284867;33;20179;-93
2023/08/09 11:35:44;;;;;;;0.08;0.08;;;;;;;29.12;60.76;99802.25;4285550;33;20104;-96